• Join FlightAware (Why Join?)
  • Login
  • US Flag 
11:47PM EDT


 

Airport Tracker/Info


-or-


 

Live Flight TrackerFlight Track Log ✈ JBU59 ✈ 19-Jun-2013 ✈ KBTV - KJFK

Flight Track Log - Related Links

Times and Time Zones

All times are in EDT time to prevent confusion due to time zone crossing. See the JBU59 flight status page for this flight to view local times or setup timezone preferences in your user account.

Time Position Orientation Groundspeed Altitude Reporting Facility
EDT Latitude Longitude Course Direction KTS MPH feet Rate Location/Type
06:23PM 44.4311 -73.2919 196° South 278 320 6,700  Level Boston Center
06:24PM 44.1507 -73.2685 195° South  Level FlightAware Approximate
06:24PM 44.3622 -73.3200 196° South 292 336 9,800  Level Boston Center
06:25PM 44.0712 -73.2983 195° South  Level FlightAware Approximate
06:25PM 44.2744 -73.3475 193° South 310 357 10,600  Level Boston Center
06:26PM 43.9912 -73.3252 194° South  Level FlightAware Approximate
06:26PM 44.1806 -73.3750 192° South 345 397 13,600  Level Boston Center
06:27PM 43.9113 -73.3522 196° South  Level FlightAware Approximate
06:27PM 44.0800 -73.4083 193° South 361 415 16,300  Level Boston Center
06:28PM 43.8322 -73.3839 196° South  Level FlightAware Approximate
06:28PM 43.9800 -73.4383 192° South 367 422 18,600  Level Boston Center
06:29PM 43.8733 -73.4711 192° South 378 435 20,900 2,100 Climbing Boston Center
06:30PM 43.7750 -73.5011 192° South 395 455 22,800 1,860 Climbing Boston Center
06:31PM 43.6622 -73.5306 191° South 408 470 24,700 1,560 Climbing Boston Center
06:32PM 43.5494 -73.5658 193° South 413 475 26,000 600 Climbing Boston Center
06:33PM 43.4344 -73.6039 194° South 418 481 26,000  Level Boston Center
06:34PM 43.3194 -73.6331 190° South 418 481 26,000  Level Boston Center
06:35PM 43.2025 -73.6678 192° South 423 487 26,000  Level Boston Center
06:36PM 43.0894 -73.7025 193° South 423 487 26,000  Level Boston Center
06:37PM 42.9744 -73.7397 193° South 428 493 26,000  Level Boston Center
06:38PM 42.8594 -73.7714 191° South 428 493 26,000  Level Boston Center
06:39PM 42.7403 -73.8056 192° South 433 498 26,000  Level Boston Center
06:40PM 42.6192 -73.8114 182° South 433 498 26,000  Level Boston Center
06:41PM 42.5047 -73.8144 181° South 427 491 26,000  Level Boston Center
06:42PM 42.3881 -73.8147 180° South 421 484 26,000  Level Boston Center
06:43PM 42.2858 -73.8153 180° South 402 463 26,000  Level Boston Center
06:44PM 42.1794 -73.8186 181° South 389 448 26,000  Level Boston Center
06:45PM 42.0772 -73.8192 180° South 382 440 26,000  Level Boston Center
06:46PM 41.9708 -73.8222 181° South 377 434 26,000 -300 Level Boston Center
06:47PM 41.8767 -73.8592 196° South 377 434 25,400 -960 Descending Boston Center
06:48PM 41.8503 -73.9786 254° West 302 348 24,100 -1,260 Descending Boston Center
06:49PM 41.8403 -74.0953 263° West 293 337 22,900 -1,200 Descending Boston Center
06:51PM 41.6544 -74.1556 194° South 351 404 20,600 -1,020 Descending New York Center
06:52PM 41.5514 -74.1169 164° South 369 425 20,000 -360 Descending New York Center
06:53PM 41.4400 -74.0836 167° South 376 433 20,000  Level New York Center
06:54PM 41.3375 -74.0981 186° South 377 434 20,000  Level New York Center
06:55PM 41.2478 -74.1789 214° Southwest 369 425 20,000 -420 Level New York Center
06:56PM 41.1644 -74.2519 213° Southwest 364 419 19,200 -540 Descending New York Center
06:57PM 41.0853 -74.3222 214° Southwest 352 405 19,000 -120 Descending New York Center
06:58PM 41.0144 -74.3928 217° Southwest 341 392 19,000  Level New York Center
06:59PM 40.9419 -74.4467 209° Southwest 330 380 19,000  Level New York Center
07:00PM 40.8667 -74.3500 136° Southeast 364 419 19,000 -120 Level New York TRACON
07:01PM 40.8500 -74.2167 99° East 362 417 18,800 -600 Descending New York TRACON
07:02PM 40.8167 -74.0833 108° East 360 414 17,800 -1,200 Descending New York TRACON
07:03PM 40.7333 -74.0333 156° South 348 400 16,500 -1,560 Descending New York TRACON
07:04PM 40.6500 -74.0000 163° South 342 394 14,900 -1,620 Descending New York TRACON
07:05PM 40.5667 -73.9667 163° South 334 384 13,300 -960 Descending New York TRACON
07:06PM 40.4833 -73.9333 163° South 325 374 13,000 -960 Descending New York TRACON
07:07PM 40.4000 -73.9000 163° South 310 357 11,400 -1,620 Descending New York TRACON
07:08PM 40.3167 -73.8667 163° South 302 348 9,800 -1,680 Descending New York TRACON
07:09PM 40.2667 -73.7833 128° Southeast 293 337 8,100 -1,380 Descending New York TRACON
07:10PM 40.2833 -73.7000 75° East 278 320 7,100 -540 Descending New York TRACON
07:11PM 40.3500 -73.6333 37° Northeast 268 308 7,100  Level New York TRACON
07:12PM 40.4000 -73.5833 37° Northeast 269 310 7,100  Level New York TRACON
07:13PM 40.4667 -73.5333 30° Northeast 272 313 7,100 -300 Level New York TRACON
07:14PM 40.5333 -73.4833 30° Northeast 270 311 6,500 -1,080 Descending New York TRACON
07:15PM 40.6167 -73.4667 North 259 298 5,000 -1,200 Descending New York TRACON
07:16PM 40.6833 -73.4667 360° North 255 293 4,100 -480 Descending New York TRACON
07:17PM 40.7500 -73.4833 349° North 252 290 4,100 -300 Level New York TRACON
07:18PM 40.8000 -73.5000 346° North 202 232 3,600 -900 Descending New York TRACON
07:19PM 40.8333 -73.5500 311° West 184 212 2,300 -780 Descending New York TRACON
07:20PM 40.8167 -73.6167 252° West 187 215 2,100 -240 Descending New York TRACON